Airfield :
LOGIN :

Register | Disclaimer

   EN    FR    IT 

 










Legend :    VFR   Marginal VFR   IFR   Intensive IFR   Very Intensive IFR
Visi :
Ceiling :
>= 8 km
>= 3000ft
5 to 8 km
1000 to 3000 ft
1500m to 5 km
500 to 1000 ft
800 to 1500m
200 to 500 ft
< 800m
< 200 ft
Symbols :   Thunderstorms  Fog  Heavy snow  Heavy precipitations  Wind > 20 kt
SIGMETs :     Misc.  Thunderstorms  Icing  Turbulence  Mountain Waves  Volcanic Ashes






- Airport Elevation : 294 ft
- IATA code : NAP


LIRN - Naples Capodichino

CURRENT METAR :
  • 191720Z 20013KT 9999 SCT040 10/05 Q1027

EXPIRED METARs :
  • 191650Z VRB02KT 9999 SCT040 10/04 Q1026 NOSIG
  • 191620Z 20003KT 9999 FEW040 10/04 Q1026 NOSIG
  • 191550Z 22004KT 9999 FEW040 10/04 Q1026 NOSIG
  • 191520Z 20006KT 160V240 9999 FEW040 11/04 Q1026 NOSIG
  • 191450Z 19005KT 150V230 9999 FEW040 12/04 Q1026 NOSIG
  • 191420Z 19004KT 140V240 9999 FEW030 13/04 Q1026 NOSIG

TAF TAF LIRN
Valid from the 19 at 12:00 until the 20 at 12:00 UTC


191100Z 1912/2012 VRB05KT 9999 SCT040
BECMG 1920/1922 23010KT
PROB40
TEMPO 1922/2012 RA



MET'MAP, your aeronautical weather chart ! - Copyright ORBIFLY December 2007 - Disclaimer

ORBIFLY MET'MAP TEAM :

Programming & Development : Alexandra Zaïnal
Concept & original design : Baudouin d'Aumeries
Assistance for programming : Marc-Olivier Méhu
Technical & hardware support : Manuel Goepfert

Contact : metmap@orbifly.com




SOURCES & CREDITS :

   NOAA